Cambridge, Minnesota
Current Conditions -  °F | °C
As of 3:16 PM on Saturday 20 Dec 2014 (Local Time) from KCBG Reporting Station
Overcast Overcast  
Wind Chill: -3°   Ceiling: 1300
Heat Index:   Visibility: 10mi
Dew Point: -4°   Wind: 10mph
Humidity: 70%   Direction: 180°S
Pressure: 30.09"   Gusts: NA
Location:  45.57°N, 93.22°W
Report Text: KCBG 202116Z AUTO 18009KT 10SM OVC013 01/M04 A3009 RMK AO2
Loading
Personal Weather Stations






























Interactive Weather Map New forecast layout! Learn more

10-Day Weather Forecast

Advertisements
Track Severe Weather on mobile